<?xml version="1.0" encoding="ISO-8859-1" standalone="yes"?>
<gpx
  xmlns="http://www.topografix.com/GPX/1/1"
  version="1.1" creator="LoadMyTracks/073 http://www.cluetrust.com/LoadMyTracks.html"
  xmlns:xsi="http://www.w3.org/2001/XMLSchema-instance"
  xmlns:gpxdata="http://www.cluetrust.com/XML/GPXDATA/1/0"
  xmlns:geocache="http://www.groundspeak.com/cache/1/0"
  xsi:schemaLocation="http://www.topografix.com/GPX/1/1 http://www.topografix.com/GPX/1/1/gpx.xsd
http://www.cluetrust.com/XML/GPXDATA/1/0 http://www.cluetrust.com/Schemas/gpxdata10.xsd">
<trk>
<name>2010/6/2 8:57:3 GMT</name>
<trkseg>
	<trkpt lat="51.76995" lon="-1.973233333"><ele>119.000000</ele><time>2010-06-02T08:57:03Z</time></trkpt>
	<trkpt lat="51.76990667" lon="-1.973256667"><ele>117.000000</ele><time>2010-06-02T08:57:34Z</time></trkpt>
	<trkpt lat="51.76985167" lon="-1.973246667"><ele>113.000000</ele><time>2010-06-02T08:58:04Z</time></trkpt>
	<trkpt lat="51.76987167" lon="-1.973261667"><ele>118.000000</ele><time>2010-06-02T08:58:34Z</time></trkpt>
	<trkpt lat="51.76998833" lon="-1.97332"><ele>128.000000</ele><time>2010-06-02T08:59:04Z</time></trkpt>
	<trkpt lat="51.769965" lon="-1.973396667"><ele>138.000000</ele><time>2010-06-02T08:59:34Z</time></trkpt>
	<trkpt lat="51.76997833" lon="-1.973393333"><ele>142.000000</ele><time>2010-06-02T09:00:04Z</time></trkpt>
	<trkpt lat="51.770025" lon="-1.973388333"><ele>140.000000</ele><time>2010-06-02T09:00:34Z</time></trkpt>
	<trkpt lat="51.77002667" lon="-1.973356667"><ele>134.000000</ele><time>2010-06-02T09:01:04Z</time></trkpt>
	<trkpt lat="51.77007833" lon="-1.973331667"><ele>138.000000</ele><time>2010-06-02T09:01:34Z</time></trkpt>
	<trkpt lat="51.77029333" lon="-1.973261667"><ele>139.000000</ele><time>2010-06-02T09:02:04Z</time></trkpt>
	<trkpt lat="51.770385" lon="-1.97285"><ele>137.000000</ele><time>2010-06-02T09:02:34Z</time></trkpt>
	<trkpt lat="51.77051833" lon="-1.972305"><ele>140.000000</ele><time>2010-06-02T09:03:04Z</time></trkpt>
	<trkpt lat="51.77053667" lon="-1.971833333"><ele>139.000000</ele><time>2010-06-02T09:03:34Z</time></trkpt>
	<trkpt lat="51.77051167" lon="-1.971303333"><ele>142.000000</ele><time>2010-06-02T09:04:04Z</time></trkpt>
	<trkpt lat="51.77037333" lon="-1.970905"><ele>144.000000</ele><time>2010-06-02T09:04:34Z</time></trkpt>
	<trkpt lat="51.77012833" lon="-1.97084"><ele>141.000000</ele><time>2010-06-02T09:05:04Z</time></trkpt>
	<trkpt lat="51.77005" lon="-1.970813333"><ele>143.000000</ele><time>2010-06-02T09:05:34Z</time></trkpt>
	<trkpt lat="51.76980167" lon="-1.970843333"><ele>142.000000</ele><time>2010-06-02T09:06:04Z</time></trkpt>
	<trkpt lat="51.76956167" lon="-1.970858333"><ele>139.000000</ele><time>2010-06-02T09:06:34Z</time></trkpt>
	<trkpt lat="51.76954" lon="-1.970825"><ele>139.000000</ele><time>2010-06-02T09:07:04Z</time></trkpt>
	<trkpt lat="51.76922833" lon="-1.970721667"><ele>138.000000</ele><time>2010-06-02T09:07:34Z</time></trkpt>
	<trkpt lat="51.76890167" lon="-1.970638333"><ele>138.000000</ele><time>2010-06-02T09:08:04Z</time></trkpt>
	<trkpt lat="51.768595" lon="-1.97064"><ele>137.000000</ele><time>2010-06-02T09:08:34Z</time></trkpt>
	<trkpt lat="51.76824833" lon="-1.970576667"><ele>133.000000</ele><time>2010-06-02T09:09:04Z</time></trkpt>
	<trkpt lat="51.76791333" lon="-1.970511667"><ele>133.000000</ele><time>2010-06-02T09:09:34Z</time></trkpt>
	<trkpt lat="51.76761667" lon="-1.970403333"><ele>134.000000</ele><time>2010-06-02T09:10:04Z</time></trkpt>
	<trkpt lat="51.76733333" lon="-1.97026"><ele>137.000000</ele><time>2010-06-02T09:10:34Z</time></trkpt>
	<trkpt lat="51.767045" lon="-1.970115"><ele>139.000000</ele><time>2010-06-02T09:11:04Z</time></trkpt>
	<trkpt lat="51.76678167" lon="-1.969998333"><ele>141.000000</ele><time>2010-06-02T09:11:34Z</time></trkpt>
	<trkpt lat="51.76648167" lon="-1.969895"><ele>141.000000</ele><time>2010-06-02T09:12:04Z</time></trkpt>
	<trkpt lat="51.76617833" lon="-1.969786667"><ele>140.000000</ele><time>2010-06-02T09:12:34Z</time></trkpt>
	<trkpt lat="51.76605667" lon="-1.969736667"><ele>139.000000</ele><time>2010-06-02T09:13:04Z</time></trkpt>
	<trkpt lat="51.76578167" lon="-1.969665"><ele>138.000000</ele><time>2010-06-02T09:13:34Z</time></trkpt>
	<trkpt lat="51.76548" lon="-1.969563333"><ele>134.000000</ele><time>2010-06-02T09:14:04Z</time></trkpt>
	<trkpt lat="51.76521" lon="-1.969593333"><ele>132.000000</ele><time>2010-06-02T09:14:34Z</time></trkpt>
	<trkpt lat="51.76493833" lon="-1.969738333"><ele>130.000000</ele><time>2010-06-02T09:15:04Z</time></trkpt>
	<trkpt lat="51.76466167" lon="-1.969901667"><ele>128.000000</ele><time>2010-06-02T09:15:34Z</time></trkpt>
	<trkpt lat="51.76435" lon="-1.969865"><ele>128.000000</ele><time>2010-06-02T09:16:04Z</time></trkpt>
	<trkpt lat="51.76411333" lon="-1.96983"><ele>127.000000</ele><time>2010-06-02T09:16:34Z</time></trkpt>
	<trkpt lat="51.76390333" lon="-1.969718333"><ele>127.000000</ele><time>2010-06-02T09:17:04Z</time></trkpt>
	<trkpt lat="51.76357833" lon="-1.969601667"><ele>126.000000</ele><time>2010-06-02T09:17:34Z</time></trkpt>
	<trkpt lat="51.76325" lon="-1.96949"><ele>126.000000</ele><time>2010-06-02T09:18:04Z</time></trkpt>
	<trkpt lat="51.76292167" lon="-1.969368333"><ele>126.000000</ele><time>2010-06-02T09:18:34Z</time></trkpt>
	<trkpt lat="51.76260833" lon="-1.969193333"><ele>125.000000</ele><time>2010-06-02T09:19:04Z</time></trkpt>
	<trkpt lat="51.762315" lon="-1.968963333"><ele>125.000000</ele><time>2010-06-02T09:19:34Z</time></trkpt>
	<trkpt lat="51.76206333" lon="-1.968676667"><ele>126.000000</ele><time>2010-06-02T09:20:04Z</time></trkpt>
	<trkpt lat="51.761835" lon="-1.968318333"><ele>125.000000</ele><time>2010-06-02T09:20:34Z</time></trkpt>
	<trkpt lat="51.76163667" lon="-1.96795"><ele>125.000000</ele><time>2010-06-02T09:21:04Z</time></trkpt>
	<trkpt lat="51.76152333" lon="-1.967538333"><ele>125.000000</ele><time>2010-06-02T09:21:34Z</time></trkpt>
	<trkpt lat="51.76138833" lon="-1.96713"><ele>125.000000</ele><time>2010-06-02T09:22:04Z</time></trkpt>
	<trkpt lat="51.76127667" lon="-1.966811667"><ele>125.000000</ele><time>2010-06-02T09:22:34Z</time></trkpt>
	<trkpt lat="51.76110333" lon="-1.966455"><ele>125.000000</ele><time>2010-06-02T09:23:04Z</time></trkpt>
	<trkpt lat="51.7609" lon="-1.966045"><ele>125.000000</ele><time>2010-06-02T09:23:34Z</time></trkpt>
	<trkpt lat="51.76066333" lon="-1.965678333"><ele>125.000000</ele><time>2010-06-02T09:24:04Z</time></trkpt>
	<trkpt lat="51.760415" lon="-1.965365"><ele>124.000000</ele><time>2010-06-02T09:24:34Z</time></trkpt>
	<trkpt lat="51.760155" lon="-1.965088333"><ele>125.000000</ele><time>2010-06-02T09:25:04Z</time></trkpt>
	<trkpt lat="51.75990667" lon="-1.964913333"><ele>127.000000</ele><time>2010-06-02T09:25:34Z</time></trkpt>
	<trkpt lat="51.75965167" lon="-1.964818333"><ele>128.000000</ele><time>2010-06-02T09:26:04Z</time></trkpt>
	<trkpt lat="51.759345" lon="-1.96486"><ele>129.000000</ele><time>2010-06-02T09:26:34Z</time></trkpt>
	<trkpt lat="51.75909" lon="-1.964946667"><ele>132.000000</ele><time>2010-06-02T09:27:04Z</time></trkpt>
	<trkpt lat="51.75878333" lon="-1.96506"><ele>133.000000</ele><time>2010-06-02T09:27:34Z</time></trkpt>
	<trkpt lat="51.75855333" lon="-1.965175"><ele>129.000000</ele><time>2010-06-02T09:28:04Z</time></trkpt>
	<trkpt lat="51.75833667" lon="-1.965388333"><ele>134.000000</ele><time>2010-06-02T09:28:34Z</time></trkpt>
	<trkpt lat="51.75814" lon="-1.965583333"><ele>129.000000</ele><time>2010-06-02T09:29:04Z</time></trkpt>
	<trkpt lat="51.75786833" lon="-1.965805"><ele>128.000000</ele><time>2010-06-02T09:29:34Z</time></trkpt>
	<trkpt lat="51.75755667" lon="-1.965936667"><ele>127.000000</ele><time>2010-06-02T09:30:04Z</time></trkpt>
	<trkpt lat="51.75728333" lon="-1.966115"><ele>127.000000</ele><time>2010-06-02T09:30:34Z</time></trkpt>
	<trkpt lat="51.75698667" lon="-1.966295"><ele>128.000000</ele><time>2010-06-02T09:31:04Z</time></trkpt>
	<trkpt lat="51.75667" lon="-1.966455"><ele>126.000000</ele><time>2010-06-02T09:31:34Z</time></trkpt>
	<trkpt lat="51.75636" lon="-1.966621667"><ele>129.000000</ele><time>2010-06-02T09:32:04Z</time></trkpt>
	<trkpt lat="51.75607667" lon="-1.966776667"><ele>130.000000</ele><time>2010-06-02T09:32:34Z</time></trkpt>
	<trkpt lat="51.755855" lon="-1.96691"><ele>129.000000</ele><time>2010-06-02T09:33:04Z</time></trkpt>
	<trkpt lat="51.75557" lon="-1.967071667"><ele>129.000000</ele><time>2010-06-02T09:33:34Z</time></trkpt>
	<trkpt lat="51.75538833" lon="-1.967386667"><ele>130.000000</ele><time>2010-06-02T09:34:04Z</time></trkpt>
	<trkpt lat="51.75520333" lon="-1.96779"><ele>130.000000</ele><time>2010-06-02T09:34:34Z</time></trkpt>
	<trkpt lat="51.75500833" lon="-1.968193333"><ele>130.000000</ele><time>2010-06-02T09:35:04Z</time></trkpt>
	<trkpt lat="51.754825" lon="-1.968583333"><ele>129.000000</ele><time>2010-06-02T09:35:34Z</time></trkpt>
	<trkpt lat="51.754625" lon="-1.968991667"><ele>128.000000</ele><time>2010-06-02T09:36:04Z</time></trkpt>
	<trkpt lat="51.75442667" lon="-1.969396667"><ele>129.000000</ele><time>2010-06-02T09:36:34Z</time></trkpt>
	<trkpt lat="51.75437" lon="-1.969863333"><ele>132.000000</ele><time>2010-06-02T09:37:04Z</time></trkpt>
	<trkpt lat="51.754195" lon="-1.970261667"><ele>129.000000</ele><time>2010-06-02T09:37:34Z</time></trkpt>
	<trkpt lat="51.75392667" lon="-1.97062"><ele>122.000000</ele><time>2010-06-02T09:38:04Z</time></trkpt>
	<trkpt lat="51.75368" lon="-1.970968333"><ele>123.000000</ele><time>2010-06-02T09:38:34Z</time></trkpt>
	<trkpt lat="51.753425" lon="-1.971251667"><ele>131.000000</ele><time>2010-06-02T09:39:04Z</time></trkpt>
	<trkpt lat="51.75326833" lon="-1.971158333"><ele>138.000000</ele><time>2010-06-02T09:39:34Z</time></trkpt>
	<trkpt lat="51.75318" lon="-1.971013333"><ele>126.000000</ele><time>2010-06-02T09:40:04Z</time></trkpt>
	<trkpt lat="51.753165" lon="-1.970785"><ele>134.000000</ele><time>2010-06-02T09:40:34Z</time></trkpt>
	<trkpt lat="51.75312667" lon="-1.97042"><ele>138.000000</ele><time>2010-06-02T09:41:04Z</time></trkpt>
	<trkpt lat="51.75309833" lon="-1.97009"><ele>143.000000</ele><time>2010-06-02T09:41:34Z</time></trkpt>
	<trkpt lat="51.75307" lon="-1.969698333"><ele>145.000000</ele><time>2010-06-02T09:42:04Z</time></trkpt>
	<trkpt lat="51.75302167" lon="-1.969348333"><ele>153.000000</ele><time>2010-06-02T09:42:34Z</time></trkpt>
	<trkpt lat="51.75301" lon="-1.969145"><ele>150.000000</ele><time>2010-06-02T09:43:04Z</time></trkpt>
	<trkpt lat="51.75299667" lon="-1.968805"><ele>156.000000</ele><time>2010-06-02T09:43:34Z</time></trkpt>
	<trkpt lat="51.75293333" lon="-1.968331667"><ele>159.000000</ele><time>2010-06-02T09:44:04Z</time></trkpt>
	<trkpt lat="51.75286167" lon="-1.967871667"><ele>161.000000</ele><time>2010-06-02T09:44:34Z</time></trkpt>
	<trkpt lat="51.752745" lon="-1.967495"><ele>158.000000</ele><time>2010-06-02T09:45:04Z</time></trkpt>
	<trkpt lat="51.75269" lon="-1.966948333"><ele>163.000000</ele><time>2010-06-02T09:45:34Z</time></trkpt>
	<trkpt lat="51.75260333" lon="-1.966481667"><ele>164.000000</ele><time>2010-06-02T09:46:04Z</time></trkpt>
	<trkpt lat="51.75253833" lon="-1.965961667"><ele>163.000000</ele><time>2010-06-02T09:46:34Z</time></trkpt>
	<trkpt lat="51.75245333" lon="-1.965688333"><ele>162.000000</ele><time>2010-06-02T09:47:04Z</time></trkpt>
	<trkpt lat="51.75246167" lon="-1.96566"><ele>159.000000</ele><time>2010-06-02T09:47:34Z</time></trkpt>
	<trkpt lat="51.75228167" lon="-1.965135"><ele>167.000000</ele><time>2010-06-02T09:48:04Z</time></trkpt>
	<trkpt lat="51.75203833" lon="-1.964543333"><ele>170.000000</ele><time>2010-06-02T09:48:34Z</time></trkpt>
	<trkpt lat="51.75172833" lon="-1.96407"><ele>172.000000</ele><time>2010-06-02T09:49:04Z</time></trkpt>
	<trkpt lat="51.751355" lon="-1.963798333"><ele>172.000000</ele><time>2010-06-02T09:49:34Z</time></trkpt>
	<trkpt lat="51.75106667" lon="-1.963608333"><ele>172.000000</ele><time>2010-06-02T09:50:04Z</time></trkpt>
	<trkpt lat="51.75075" lon="-1.963365"><ele>173.000000</ele><time>2010-06-02T09:50:34Z</time></trkpt>
	<trkpt lat="51.75055333" lon="-1.96292"><ele>167.000000</ele><time>2010-06-02T09:51:04Z</time></trkpt>
	<trkpt lat="51.75057167" lon="-1.962403333"><ele>166.000000</ele><time>2010-06-02T09:51:34Z</time></trkpt>
	<trkpt lat="51.75059667" lon="-1.961881667"><ele>165.000000</ele><time>2010-06-02T09:52:04Z</time></trkpt>
	<trkpt lat="51.75062667" lon="-1.961336667"><ele>165.000000</ele><time>2010-06-02T09:52:34Z</time></trkpt>
	<trkpt lat="51.75065833" lon="-1.960793333"><ele>165.000000</ele><time>2010-06-02T09:53:04Z</time></trkpt>
	<trkpt lat="51.75068" lon="-1.96036"><ele>165.000000</ele><time>2010-06-02T09:53:34Z</time></trkpt>
	<trkpt lat="51.75071167" lon="-1.95982"><ele>164.000000</ele><time>2010-06-02T09:54:04Z</time></trkpt>
	<trkpt lat="51.75074333" lon="-1.959273333"><ele>163.000000</ele><time>2010-06-02T09:54:34Z</time></trkpt>
	<trkpt lat="51.75092167" lon="-1.95895"><ele>162.000000</ele><time>2010-06-02T09:55:04Z</time></trkpt>
	<trkpt lat="51.75115167" lon="-1.958841667"><ele>163.000000</ele><time>2010-06-02T09:55:34Z</time></trkpt>
	<trkpt lat="51.75142333" lon="-1.958621667"><ele>163.000000</ele><time>2010-06-02T09:56:04Z</time></trkpt>
	<trkpt lat="51.751495" lon="-1.958578333"><ele>162.000000</ele><time>2010-06-02T09:56:34Z</time></trkpt>
	<trkpt lat="51.75178333" lon="-1.958196667"><ele>165.000000</ele><time>2010-06-02T09:57:04Z</time></trkpt>
	<trkpt lat="51.751725" lon="-1.958276667"><ele>164.000000</ele><time>2010-06-02T09:57:34Z</time></trkpt>
	<trkpt lat="51.75149833" lon="-1.958553333"><ele>163.000000</ele><time>2010-06-02T09:58:04Z</time></trkpt>
	<trkpt lat="51.75144667" lon="-1.958553333"><ele>160.000000</ele><time>2010-06-02T09:58:34Z</time></trkpt>
	<trkpt lat="51.75144833" lon="-1.958536667"><ele>158.000000</ele><time>2010-06-02T09:59:04Z</time></trkpt>
	<trkpt lat="51.75145333" lon="-1.958545"><ele>157.000000</ele><time>2010-06-02T09:59:34Z</time></trkpt>
	<trkpt lat="51.75145167" lon="-1.958553333"><ele>157.000000</ele><time>2010-06-02T10:00:04Z</time></trkpt>
	<trkpt lat="51.75145" lon="-1.958558333"><ele>157.000000</ele><time>2010-06-02T10:00:34Z</time></trkpt>
	<trkpt lat="51.75144667" lon="-1.958561667"><ele>157.000000</ele><time>2010-06-02T10:01:04Z</time></trkpt>
	<trkpt lat="51.75144833" lon="-1.958558333"><ele>157.000000</ele><time>2010-06-02T10:01:34Z</time></trkpt>
	<trkpt lat="51.751445" lon="-1.958563333"><ele>158.000000</ele><time>2010-06-02T10:02:04Z</time></trkpt>
	<trkpt lat="51.75144667" lon="-1.958561667"><ele>157.000000</ele><time>2010-06-02T10:02:34Z</time></trkpt>
	<trkpt lat="51.75144833" lon="-1.958563333"><ele>157.000000</ele><time>2010-06-02T10:03:04Z</time></trkpt>
	<trkpt lat="51.75145167" lon="-1.958563333"><ele>156.000000</ele><time>2010-06-02T10:03:34Z</time></trkpt>
	<trkpt lat="51.75145" lon="-1.958565"><ele>157.000000</ele><time>2010-06-02T10:04:04Z</time></trkpt>
	<trkpt lat="51.75145" lon="-1.958558333"><ele>157.000000</ele><time>2010-06-02T10:04:34Z</time></trkpt>
	<trkpt lat="51.75145" lon="-1.958558333"><ele>157.000000</ele><time>2010-06-02T10:05:04Z</time></trkpt>
	<trkpt lat="51.75145" lon="-1.958558333"><ele>157.000000</ele><time>2010-06-02T10:05:34Z</time></trkpt>
	<trkpt lat="51.75144667" lon="-1.958563333"><ele>157.000000</ele><time>2010-06-02T10:06:04Z</time></trkpt>
	<trkpt lat="51.75144167" lon="-1.958573333"><ele>159.000000</ele><time>2010-06-02T10:06:34Z</time></trkpt>
	<trkpt lat="51.75144" lon="-1.958578333"><ele>159.000000</ele><time>2010-06-02T10:07:04Z</time></trkpt>
	<trkpt lat="51.75144" lon="-1.958576667"><ele>159.000000</ele><time>2010-06-02T10:07:34Z</time></trkpt>
	<trkpt lat="51.75144833" lon="-1.958563333"><ele>159.000000</ele><time>2010-06-02T10:08:04Z</time></trkpt>
	<trkpt lat="51.75145333" lon="-1.958553333"><ele>158.000000</ele><time>2010-06-02T10:08:34Z</time></trkpt>
	<trkpt lat="51.75145333" lon="-1.958553333"><ele>158.000000</ele><time>2010-06-02T10:09:04Z</time></trkpt>
	<trkpt lat="51.751455" lon="-1.958551667"><ele>158.000000</ele><time>2010-06-02T10:09:34Z</time></trkpt>
	<trkpt lat="51.75147833" lon="-1.958531667"><ele>159.000000</ele><time>2010-06-02T10:10:04Z</time></trkpt>
	<trkpt lat="51.75165833" lon="-1.958343333"><ele>162.000000</ele><time>2010-06-02T10:10:34Z</time></trkpt>
	<trkpt lat="51.75186" lon="-1.958073333"><ele>164.000000</ele><time>2010-06-02T10:11:04Z</time></trkpt>
	<trkpt lat="51.75208667" lon="-1.957758333"><ele>165.000000</ele><time>2010-06-02T10:11:34Z</time></trkpt>
	<trkpt lat="51.75229167" lon="-1.957446667"><ele>166.000000</ele><time>2010-06-02T10:12:04Z</time></trkpt>
	<trkpt lat="51.752355" lon="-1.957348333"><ele>166.000000</ele><time>2010-06-02T10:12:34Z</time></trkpt>
	<trkpt lat="51.75243833" lon="-1.957198333"><ele>166.000000</ele><time>2010-06-02T10:13:04Z</time></trkpt>
	<trkpt lat="51.75263333" lon="-1.956908333"><ele>167.000000</ele><time>2010-06-02T10:13:34Z</time></trkpt>
	<trkpt lat="51.75287667" lon="-1.956523333"><ele>168.000000</ele><time>2010-06-02T10:14:04Z</time></trkpt>
	<trkpt lat="51.75304167" lon="-1.956273333"><ele>169.000000</ele><time>2010-06-02T10:14:34Z</time></trkpt>
	<trkpt lat="51.75320833" lon="-1.956036667"><ele>171.000000</ele><time>2010-06-02T10:15:04Z</time></trkpt>
	<trkpt lat="51.75321" lon="-1.956026667"><ele>169.000000</ele><time>2010-06-02T10:15:34Z</time></trkpt>
	<trkpt lat="51.75339333" lon="-1.955778333"><ele>170.000000</ele><time>2010-06-02T10:16:04Z</time></trkpt>
	<trkpt lat="51.75366" lon="-1.955423333"><ele>170.000000</ele><time>2010-06-02T10:16:34Z</time></trkpt>
	<trkpt lat="51.75392833" lon="-1.955046667"><ele>171.000000</ele><time>2010-06-02T10:17:04Z</time></trkpt>
	<trkpt lat="51.75418833" lon="-1.954685"><ele>171.000000</ele><time>2010-06-02T10:17:34Z</time></trkpt>
	<trkpt lat="51.75444" lon="-1.954323333"><ele>172.000000</ele><time>2010-06-02T10:18:04Z</time></trkpt>
	<trkpt lat="51.754675" lon="-1.953985"><ele>172.000000</ele><time>2010-06-02T10:18:34Z</time></trkpt>
	<trkpt lat="51.75491167" lon="-1.953643333"><ele>171.000000</ele><time>2010-06-02T10:19:04Z</time></trkpt>
	<trkpt lat="51.75517333" lon="-1.953241667"><ele>168.000000</ele><time>2010-06-02T10:19:34Z</time></trkpt>
	<trkpt lat="51.75543333" lon="-1.952803333"><ele>168.000000</ele><time>2010-06-02T10:20:04Z</time></trkpt>
	<trkpt lat="51.75567667" lon="-1.952383333"><ele>168.000000</ele><time>2010-06-02T10:20:34Z</time></trkpt>
	<trkpt lat="51.7559" lon="-1.952018333"><ele>170.000000</ele><time>2010-06-02T10:21:04Z</time></trkpt>
	<trkpt lat="51.756125" lon="-1.951651667"><ele>171.000000</ele><time>2010-06-02T10:21:34Z</time></trkpt>
	<trkpt lat="51.75634833" lon="-1.951288333"><ele>172.000000</ele><time>2010-06-02T10:22:04Z</time></trkpt>
	<trkpt lat="51.75657833" lon="-1.950916667"><ele>173.000000</ele><time>2010-06-02T10:22:34Z</time></trkpt>
	<trkpt lat="51.756805" lon="-1.950546667"><ele>175.000000</ele><time>2010-06-02T10:23:04Z</time></trkpt>
	<trkpt lat="51.757035" lon="-1.950175"><ele>175.000000</ele><time>2010-06-02T10:23:34Z</time></trkpt>
	<trkpt lat="51.75727167" lon="-1.949838333"><ele>176.000000</ele><time>2010-06-02T10:24:04Z</time></trkpt>
	<trkpt lat="51.75752167" lon="-1.94952"><ele>177.000000</ele><time>2010-06-02T10:24:34Z</time></trkpt>
	<trkpt lat="51.75776333" lon="-1.949203333"><ele>177.000000</ele><time>2010-06-02T10:25:04Z</time></trkpt>
	<trkpt lat="51.75801167" lon="-1.948885"><ele>179.000000</ele><time>2010-06-02T10:25:34Z</time></trkpt>
	<trkpt lat="51.75826167" lon="-1.94856"><ele>180.000000</ele><time>2010-06-02T10:26:04Z</time></trkpt>
	<trkpt lat="51.75843167" lon="-1.948336667"><ele>180.000000</ele><time>2010-06-02T10:26:34Z</time></trkpt>
	<trkpt lat="51.758505" lon="-1.94826"><ele>179.000000</ele><time>2010-06-02T10:27:04Z</time></trkpt>
	<trkpt lat="51.7587" lon="-1.948016667"><ele>181.000000</ele><time>2010-06-02T10:27:34Z</time></trkpt>
	<trkpt lat="51.75879167" lon="-1.947901667"><ele>183.000000</ele><time>2010-06-02T10:28:04Z</time></trkpt>
	<trkpt lat="51.75896167" lon="-1.947515"><ele>185.000000</ele><time>2010-06-02T10:28:34Z</time></trkpt>
	<trkpt lat="51.75919" lon="-1.947103333"><ele>186.000000</ele><time>2010-06-02T10:29:04Z</time></trkpt>
	<trkpt lat="51.759505" lon="-1.946878333"><ele>186.000000</ele><time>2010-06-02T10:29:34Z</time></trkpt>
	<trkpt lat="51.75980667" lon="-1.946666667"><ele>184.000000</ele><time>2010-06-02T10:30:04Z</time></trkpt>
	<trkpt lat="51.7601" lon="-1.946473333"><ele>186.000000</ele><time>2010-06-02T10:30:34Z</time></trkpt>
	<trkpt lat="51.7604" lon="-1.94626"><ele>187.000000</ele><time>2010-06-02T10:31:04Z</time></trkpt>
	<trkpt lat="51.76071" lon="-1.946076667"><ele>188.000000</ele><time>2010-06-02T10:31:34Z</time></trkpt>
	<trkpt lat="51.76102667" lon="-1.945903333"><ele>189.000000</ele><time>2010-06-02T10:32:04Z</time></trkpt>
	<trkpt lat="51.761345" lon="-1.945725"><ele>189.000000</ele><time>2010-06-02T10:32:34Z</time></trkpt>
	<trkpt lat="51.76166333" lon="-1.945625"><ele>189.000000</ele><time>2010-06-02T10:33:04Z</time></trkpt>
	<trkpt lat="51.76174667" lon="-1.945763333"><ele>189.000000</ele><time>2010-06-02T10:33:34Z</time></trkpt>
	<trkpt lat="51.76189833" lon="-1.945853333"><ele>178.000000</ele><time>2010-06-02T10:34:04Z</time></trkpt>
	<trkpt lat="51.76208667" lon="-1.946008333"><ele>185.000000</ele><time>2010-06-02T10:34:34Z</time></trkpt>
	<trkpt lat="51.76220667" lon="-1.946088333"><ele>189.000000</ele><time>2010-06-02T10:35:04Z</time></trkpt>
	<trkpt lat="51.762355" lon="-1.946265"><ele>195.000000</ele><time>2010-06-02T10:35:34Z</time></trkpt>
	<trkpt lat="51.76265833" lon="-1.946586667"><ele>195.000000</ele><time>2010-06-02T10:36:04Z</time></trkpt>
	<trkpt lat="51.76289833" lon="-1.946793333"><ele>200.000000</ele><time>2010-06-02T10:36:34Z</time></trkpt>
	<trkpt lat="51.76314167" lon="-1.947038333"><ele>212.000000</ele><time>2010-06-02T10:37:04Z</time></trkpt>
	<trkpt lat="51.76333833" lon="-1.947318333"><ele>212.000000</ele><time>2010-06-02T10:37:34Z</time></trkpt>
	<trkpt lat="51.76357833" lon="-1.947508333"><ele>208.000000</ele><time>2010-06-02T10:38:04Z</time></trkpt>
	<trkpt lat="51.76377333" lon="-1.94774"><ele>208.000000</ele><time>2010-06-02T10:38:34Z</time></trkpt>
	<trkpt lat="51.76401167" lon="-1.947866667"><ele>200.000000</ele><time>2010-06-02T10:39:04Z</time></trkpt>
	<trkpt lat="51.76414333" lon="-1.948098333"><ele>199.000000</ele><time>2010-06-02T10:39:34Z</time></trkpt>
	<trkpt lat="51.76424" lon="-1.948215"><ele>196.000000</ele><time>2010-06-02T10:40:04Z</time></trkpt>
	<trkpt lat="51.76427833" lon="-1.94823"><ele>195.000000</ele><time>2010-06-02T10:40:34Z</time></trkpt>
	<trkpt lat="51.76428833" lon="-1.948208333"><ele>193.000000</ele><time>2010-06-02T10:41:04Z</time></trkpt>
	<trkpt lat="51.76426333" lon="-1.948188333"><ele>192.000000</ele><time>2010-06-02T10:41:34Z</time></trkpt>
	<trkpt lat="51.76433333" lon="-1.948303333"><ele>192.000000</ele><time>2010-06-02T10:42:04Z</time></trkpt>
	<trkpt lat="51.76452167" lon="-1.948778333"><ele>191.000000</ele><time>2010-06-02T10:42:34Z</time></trkpt>
	<trkpt lat="51.764735" lon="-1.949265"><ele>190.000000</ele><time>2010-06-02T10:43:04Z</time></trkpt>
	<trkpt lat="51.76481833" lon="-1.949475"><ele>188.000000</ele><time>2010-06-02T10:43:34Z</time></trkpt>
	<trkpt lat="51.76499667" lon="-1.94987"><ele>187.000000</ele><time>2010-06-02T10:44:04Z</time></trkpt>
	<trkpt lat="51.76523" lon="-1.950373333"><ele>187.000000</ele><time>2010-06-02T10:44:34Z</time></trkpt>
	<trkpt lat="51.76545833" lon="-1.950871667"><ele>187.000000</ele><time>2010-06-02T10:45:04Z</time></trkpt>
	<trkpt lat="51.76559" lon="-1.951153333"><ele>187.000000</ele><time>2010-06-02T10:45:34Z</time></trkpt>
	<trkpt lat="51.7658" lon="-1.951618333"><ele>186.000000</ele><time>2010-06-02T10:46:04Z</time></trkpt>
	<trkpt lat="51.76592" lon="-1.951916667"><ele>186.000000</ele><time>2010-06-02T10:46:34Z</time></trkpt>
	<trkpt lat="51.766105" lon="-1.952311667"><ele>185.000000</ele><time>2010-06-02T10:47:04Z</time></trkpt>
	<trkpt lat="51.76627667" lon="-1.952663333"><ele>186.000000</ele><time>2010-06-02T10:47:34Z</time></trkpt>
	<trkpt lat="51.76642667" lon="-1.952998333"><ele>187.000000</ele><time>2010-06-02T10:48:04Z</time></trkpt>
	<trkpt lat="51.76657667" lon="-1.95334"><ele>188.000000</ele><time>2010-06-02T10:48:34Z</time></trkpt>
	<trkpt lat="51.76658333" lon="-1.953411667"><ele>190.000000</ele><time>2010-06-02T10:49:04Z</time></trkpt>
	<trkpt lat="51.766675" lon="-1.953591667"><ele>189.000000</ele><time>2010-06-02T10:49:34Z</time></trkpt>
	<trkpt lat="51.76690167" lon="-1.954076667"><ele>190.000000</ele><time>2010-06-02T10:50:04Z</time></trkpt>
	<trkpt lat="51.767125" lon="-1.954555"><ele>191.000000</ele><time>2010-06-02T10:50:34Z</time></trkpt>
	<trkpt lat="51.76734333" lon="-1.955058333"><ele>192.000000</ele><time>2010-06-02T10:51:04Z</time></trkpt>
	<trkpt lat="51.76751167" lon="-1.955421667"><ele>192.000000</ele><time>2010-06-02T10:51:34Z</time></trkpt>
	<trkpt lat="51.76767333" lon="-1.955773333"><ele>193.000000</ele><time>2010-06-02T10:52:04Z</time></trkpt>
	<trkpt lat="51.7678" lon="-1.95605"><ele>193.000000</ele><time>2010-06-02T10:52:34Z</time></trkpt>
	<trkpt lat="51.76798" lon="-1.956448333"><ele>193.000000</ele><time>2010-06-02T10:53:04Z</time></trkpt>
	<trkpt lat="51.76815" lon="-1.956803333"><ele>193.000000</ele><time>2010-06-02T10:53:34Z</time></trkpt>
	<trkpt lat="51.76830833" lon="-1.95716"><ele>193.000000</ele><time>2010-06-02T10:54:04Z</time></trkpt>
	<trkpt lat="51.768325" lon="-1.957261667"><ele>192.000000</ele><time>2010-06-02T10:54:34Z</time></trkpt>
	<trkpt lat="51.76848667" lon="-1.95728"><ele>194.000000</ele><time>2010-06-02T10:55:04Z</time></trkpt>
	<trkpt lat="51.768685" lon="-1.957288333"><ele>193.000000</ele><time>2010-06-02T10:55:34Z</time></trkpt>
	<trkpt lat="51.76885333" lon="-1.957298333"><ele>191.000000</ele><time>2010-06-02T10:56:04Z</time></trkpt>
	<trkpt lat="51.76887167" lon="-1.95746"><ele>190.000000</ele><time>2010-06-02T10:56:34Z</time></trkpt>
	<trkpt lat="51.768815" lon="-1.957901667"><ele>185.000000</ele><time>2010-06-02T10:57:04Z</time></trkpt>
	<trkpt lat="51.76863" lon="-1.958293333"><ele>188.000000</ele><time>2010-06-02T10:57:34Z</time></trkpt>
	<trkpt lat="51.76860667" lon="-1.958601667"><ele>184.000000</ele><time>2010-06-02T10:58:04Z</time></trkpt>
	<trkpt lat="51.76865167" lon="-1.958731667"><ele>184.000000</ele><time>2010-06-02T10:58:34Z</time></trkpt>
	<trkpt lat="51.76865833" lon="-1.958746667"><ele>184.000000</ele><time>2010-06-02T10:59:04Z</time></trkpt>
	<trkpt lat="51.768655" lon="-1.958745"><ele>183.000000</ele><time>2010-06-02T10:59:34Z</time></trkpt>
	<trkpt lat="51.768675" lon="-1.958816667"><ele>183.000000</ele><time>2010-06-02T11:00:04Z</time></trkpt>
	<trkpt lat="51.768735" lon="-1.959161667"><ele>189.000000</ele><time>2010-06-02T11:00:34Z</time></trkpt>
	<trkpt lat="51.76881667" lon="-1.959555"><ele>191.000000</ele><time>2010-06-02T11:01:04Z</time></trkpt>
	<trkpt lat="51.76889833" lon="-1.959973333"><ele>192.000000</ele><time>2010-06-02T11:01:34Z</time></trkpt>
	<trkpt lat="51.768925" lon="-1.960128333"><ele>191.000000</ele><time>2010-06-02T11:02:04Z</time></trkpt>
	<trkpt lat="51.76898333" lon="-1.960391667"><ele>191.000000</ele><time>2010-06-02T11:02:34Z</time></trkpt>
	<trkpt lat="51.76903667" lon="-1.960646667"><ele>191.000000</ele><time>2010-06-02T11:03:04Z</time></trkpt>
	<trkpt lat="51.76904167" lon="-1.960698333"><ele>191.000000</ele><time>2010-06-02T11:03:34Z</time></trkpt>
	<trkpt lat="51.76906667" lon="-1.960826667"><ele>192.000000</ele><time>2010-06-02T11:04:04Z</time></trkpt>
	<trkpt lat="51.76916667" lon="-1.961261667"><ele>192.000000</ele><time>2010-06-02T11:04:34Z</time></trkpt>
	<trkpt lat="51.76926333" lon="-1.961691667"><ele>193.000000</ele><time>2010-06-02T11:05:04Z</time></trkpt>
	<trkpt lat="51.76936" lon="-1.96213"><ele>193.000000</ele><time>2010-06-02T11:05:34Z</time></trkpt>
	<trkpt lat="51.76942333" lon="-1.96243"><ele>192.000000</ele><time>2010-06-02T11:06:04Z</time></trkpt>
	<trkpt lat="51.76948167" lon="-1.962755"><ele>192.000000</ele><time>2010-06-02T11:06:34Z</time></trkpt>
	<trkpt lat="51.76957667" lon="-1.9632"><ele>191.000000</ele><time>2010-06-02T11:07:04Z</time></trkpt>
	<trkpt lat="51.76965" lon="-1.963571667"><ele>193.000000</ele><time>2010-06-02T11:07:34Z</time></trkpt>
	<trkpt lat="51.769655" lon="-1.963598333"><ele>192.000000</ele><time>2010-06-02T11:08:04Z</time></trkpt>
	<trkpt lat="51.76975" lon="-1.963995"><ele>194.000000</ele><time>2010-06-02T11:08:34Z</time></trkpt>
	<trkpt lat="51.76984" lon="-1.964415"><ele>196.000000</ele><time>2010-06-02T11:09:04Z</time></trkpt>
	<trkpt lat="51.76994167" lon="-1.964865"><ele>195.000000</ele><time>2010-06-02T11:09:34Z</time></trkpt>
	<trkpt lat="51.770045" lon="-1.965343333"><ele>193.000000</ele><time>2010-06-02T11:10:04Z</time></trkpt>
	<trkpt lat="51.77014333" lon="-1.965811667"><ele>190.000000</ele><time>2010-06-02T11:10:34Z</time></trkpt>
	<trkpt lat="51.770245" lon="-1.966278333"><ele>189.000000</ele><time>2010-06-02T11:11:04Z</time></trkpt>
	<trkpt lat="51.77033333" lon="-1.966713333"><ele>188.000000</ele><time>2010-06-02T11:11:34Z</time></trkpt>
	<trkpt lat="51.77042667" lon="-1.967146667"><ele>186.000000</ele><time>2010-06-02T11:12:04Z</time></trkpt>
	<trkpt lat="51.77051333" lon="-1.96756"><ele>184.000000</ele><time>2010-06-02T11:12:34Z</time></trkpt>
	<trkpt lat="51.77059167" lon="-1.967955"><ele>184.000000</ele><time>2010-06-02T11:13:04Z</time></trkpt>
	<trkpt lat="51.77062667" lon="-1.968023333"><ele>181.000000</ele><time>2010-06-02T11:13:34Z</time></trkpt>
	<trkpt lat="51.77062667" lon="-1.96817"><ele>186.000000</ele><time>2010-06-02T11:14:04Z</time></trkpt>
	<trkpt lat="51.77076667" lon="-1.96836"><ele>186.000000</ele><time>2010-06-02T11:14:34Z</time></trkpt>
	<trkpt lat="51.77090333" lon="-1.968583333"><ele>184.000000</ele><time>2010-06-02T11:15:04Z</time></trkpt>
	<trkpt lat="51.77105833" lon="-1.968798333"><ele>181.000000</ele><time>2010-06-02T11:15:34Z</time></trkpt>
	<trkpt lat="51.77123" lon="-1.96906"><ele>174.000000</ele><time>2010-06-02T11:16:04Z</time></trkpt>
	<trkpt lat="51.77139" lon="-1.969175"><ele>171.000000</ele><time>2010-06-02T11:16:34Z</time></trkpt>
	<trkpt lat="51.77151" lon="-1.96937"><ele>167.000000</ele><time>2010-06-02T11:17:04Z</time></trkpt>
	<trkpt lat="51.77172833" lon="-1.969683333"><ele>163.000000</ele><time>2010-06-02T11:17:34Z</time></trkpt>
	<trkpt lat="51.77157" lon="-1.970018333"><ele>169.000000</ele><time>2010-06-02T11:18:04Z</time></trkpt>
	<trkpt lat="51.771305" lon="-1.970316667"><ele>180.000000</ele><time>2010-06-02T11:18:34Z</time></trkpt>
	<trkpt lat="51.77107333" lon="-1.970688333"><ele>193.000000</ele><time>2010-06-02T11:19:04Z</time></trkpt>
	<trkpt lat="51.77092833" lon="-1.971345"><ele>175.000000</ele><time>2010-06-02T11:19:34Z</time></trkpt>
	<trkpt lat="51.77073167" lon="-1.971606667"><ele>173.000000</ele><time>2010-06-02T11:20:04Z</time></trkpt>
	<trkpt lat="51.77052" lon="-1.972065"><ele>163.000000</ele><time>2010-06-02T11:20:34Z</time></trkpt>
	<trkpt lat="51.77043833" lon="-1.972431667"><ele>170.000000</ele><time>2010-06-02T11:21:04Z</time></trkpt>
	<trkpt lat="51.77036" lon="-1.972851667"><ele>166.000000</ele><time>2010-06-02T11:21:34Z</time></trkpt>
	<trkpt lat="51.77024167" lon="-1.973361667"><ele>155.000000</ele><time>2010-06-02T11:22:04Z</time></trkpt>
	<trkpt lat="51.770045" lon="-1.97332"><ele>146.000000</ele><time>2010-06-02T11:22:34Z</time></trkpt>
</trkseg>
</trk>
</gpx>
